Terminal Aerodrome Forecast
Issued by NWS Twin Cities, MN

Home | Current Version | Previous Version | Graphics & Text | Print | Product List | Glossary On
Versions: 1 2 3 4 5 6 7 8 9 10 11 12 13 14 15 16 17
000
FTUS43 KMPX 032342
TAFSTC
TAF
KSTC 032342Z 0400/0424 31022G28KT P6SM SCT025
      TEMPO 0400/0402 BKN025
     FM040300 30013G20KT P6SM SKC
     FM040600 29010KT P6SM SKC
     FM041600 31015G23KT P6SM FEW250=

USA.gov is the U.S. government's official web portal to all federal, state and local government web resources and services.